sensor_id;sensor_type;location;lat;lon;timestamp;P1;durP1;ratioP1;P2;durP2;ratioP2
7761;SDS011;3925;48.636;9.516;2023-06-22T00:01:12;9.80;;;8.80;;
7761;SDS011;3925;48.636;9.516;2023-06-22T00:03:39;8.40;;;7.57;;
7761;SDS011;3925;48.636;9.516;2023-06-22T00:06:07;9.43;;;8.23;;
7761;SDS011;3925;48.636;9.516;2023-06-22T00:08:34;9.80;;;8.90;;
7761;SDS011;3925;48.636;9.516;2023-06-22T00:11:01;8.80;;;7.90;;
7761;SDS011;3925;48.636;9.516;2023-06-22T00:13:28;9.43;;;8.50;;
7761;SDS011;3925;48.636;9.516;2023-06-22T00:15:55;10.00;;;9.10;;
7761;SDS011;3925;48.636;9.516;2023-06-22T00:18:21;9.47;;;8.57;;
7761;SDS011;3925;48.636;9.516;2023-06-22T00:20:53;10.30;;;9.50;;
7761;SDS011;3925;48.636;9.516;2023-06-22T00:23:24;9.70;;;8.80;;
7761;SDS011;3925;48.636;9.516;2023-06-22T00:25:51;9.90;;;8.90;;
7761;SDS011;3925;48.636;9.516;2023-06-22T00:28:18;10.97;;;10.00;;
7761;SDS011;3925;48.636;9.516;2023-06-22T00:30:44;9.77;;;8.70;;
7761;SDS011;3925;48.636;9.516;2023-06-22T00:33:12;10.20;;;8.30;;
7761;SDS011;3925;48.636;9.516;2023-06-22T00:35:41;13.33;;;9.43;;
7761;SDS011;3925;48.636;9.516;2023-06-22T00:38:08;10.30;;;8.80;;
7761;SDS011;3925;48.636;9.516;2023-06-22T00:40:36;9.17;;;8.37;;
7761;SDS011;3925;48.636;9.516;2023-06-22T00:43:03;8.47;;;7.77;;
7761;SDS011;3925;48.636;9.516;2023-06-22T00:45:31;10.30;;;9.40;;
7761;SDS011;3925;48.636;9.516;2023-06-22T00:47:58;9.37;;;8.57;;
7761;SDS011;3925;48.636;9.516;2023-06-22T00:50:26;10.90;;;9.90;;
7761;SDS011;3925;48.636;9.516;2023-06-22T00:52:59;9.40;;;8.37;;
7761;SDS011;3925;48.636;9.516;2023-06-22T00:55:27;10.70;;;9.67;;
7761;SDS011;3925;48.636;9.516;2023-06-22T00:57:57;11.50;;;10.23;;
7761;SDS011;3925;48.636;9.516;2023-06-22T01:00:24;13.73;;;10.30;;
7761;SDS011;3925;48.636;9.516;2023-06-22T01:02:51;12.10;;;11.00;;
7761;SDS011;3925;48.636;9.516;2023-06-22T01:05:19;12.00;;;10.03;;
7761;SDS011;3925;48.636;9.516;2023-06-22T01:07:57;11.00;;;10.00;;
7761;SDS011;3925;48.636;9.516;2023-06-22T01:10:33;12.93;;;11.37;;
7761;SDS011;3925;48.636;9.516;2023-06-22T01:13:09;14.07;;;11.33;;
7761;SDS011;3925;48.636;9.516;2023-06-22T01:15:55;11.87;;;10.67;;
7761;SDS011;3925;48.636;9.516;2023-06-22T01:18:26;11.17;;;9.80;;
7761;SDS011;3925;48.636;9.516;2023-06-22T01:20:57;12.73;;;11.20;;
7761;SDS011;3925;48.636;9.516;2023-06-22T01:23:27;12.67;;;11.33;;
7761;SDS011;3925;48.636;9.516;2023-06-22T01:26:02;12.07;;;10.57;;
7761;SDS011;3925;48.636;9.516;2023-06-22T01:28:45;11.17;;;10.17;;
7761;SDS011;3925;48.636;9.516;2023-06-22T01:31:15;11.07;;;9.90;;
7761;SDS011;3925;48.636;9.516;2023-06-22T01:33:44;11.00;;;10.00;;
7761;SDS011;3925;48.636;9.516;2023-06-22T01:36:14;10.80;;;9.70;;
7761;SDS011;3925;48.636;9.516;2023-06-22T01:38:44;10.33;;;9.33;;
7761;SDS011;3925;48.636;9.516;2023-06-22T01:41:12;13.07;;;11.67;;
7761;SDS011;3925;48.636;9.516;2023-06-22T01:43:39;12.10;;;10.83;;
7761;SDS011;3925;48.636;9.516;2023-06-22T01:46:08;11.53;;;10.43;;
7761;SDS011;3925;48.636;9.516;2023-06-22T01:48:35;11.83;;;10.63;;
7761;SDS011;3925;48.636;9.516;2023-06-22T01:51:02;10.90;;;9.90;;
7761;SDS011;3925;48.636;9.516;2023-06-22T01:53:29;10.57;;;9.50;;
7761;SDS011;3925;48.636;9.516;2023-06-22T01:55:56;11.87;;;10.57;;
7761;SDS011;3925;48.636;9.516;2023-06-22T01:58:25;11.37;;;10.37;;
7761;SDS011;3925;48.636;9.516;2023-06-22T02:00:57;13.80;;;10.77;;
7761;SDS011;3925;48.636;9.516;2023-06-22T02:03:31;12.20;;;11.00;;
7761;SDS011;3925;48.636;9.516;2023-06-22T02:06:02;16.17;;;12.10;;
7761;SDS011;3925;48.636;9.516;2023-06-22T02:08:32;11.13;;;10.13;;
7761;SDS011;3925;48.636;9.516;2023-06-22T02:11:03;12.43;;;11.23;;
7761;SDS011;3925;48.636;9.516;2023-06-22T02:13:31;11.93;;;10.73;;
7761;SDS011;3925;48.636;9.516;2023-06-22T02:15:59;11.10;;;10.10;;
7761;SDS011;3925;48.636;9.516;2023-06-22T02:18:27;12.60;;;10.40;;
7761;SDS011;3925;48.636;9.516;2023-06-22T02:20:55;12.97;;;11.60;;
7761;SDS011;3925;48.636;9.516;2023-06-22T02:23:22;11.90;;;10.70;;
7761;SDS011;3925;48.636;9.516;2023-06-22T02:25:49;12.53;;;11.43;;
7761;SDS011;3925;48.636;9.516;2023-06-22T02:28:16;12.23;;;10.80;;
7761;SDS011;3925;48.636;9.516;2023-06-22T02:30:43;11.57;;;10.53;;
7761;SDS011;3925;48.636;9.516;2023-06-22T02:33:09;10.40;;;9.50;;
7761;SDS011;3925;48.636;9.516;2023-06-22T02:35:36;11.07;;;9.97;;
7761;SDS011;3925;48.636;9.516;2023-06-22T02:38:06;12.47;;;11.33;;
7761;SDS011;3925;48.636;9.516;2023-06-22T02:40:33;11.33;;;10.23;;
7761;SDS011;3925;48.636;9.516;2023-06-22T02:43:00;10.10;;;9.20;;
7761;SDS011;3925;48.636;9.516;2023-06-22T02:45:27;11.80;;;10.50;;
7761;SDS011;3925;48.636;9.516;2023-06-22T02:47:55;11.30;;;10.40;;
7761;SDS011;3925;48.636;9.516;2023-06-22T02:50:22;10.03;;;9.03;;
7761;SDS011;3925;48.636;9.516;2023-06-22T02:52:49;11.97;;;11.00;;
7761;SDS011;3925;48.636;9.516;2023-06-22T02:55:17;13.50;;;12.20;;
7761;SDS011;3925;48.636;9.516;2023-06-22T02:57:44;13.93;;;12.17;;
7761;SDS011;3925;48.636;9.516;2023-06-22T03:00:13;12.97;;;11.77;;
7761;SDS011;3925;48.636;9.516;2023-06-22T03:02:43;14.33;;;11.43;;
7761;SDS011;3925;48.636;9.516;2023-06-22T03:05:10;12.57;;;11.47;;
7761;SDS011;3925;48.636;9.516;2023-06-22T03:07:38;11.97;;;10.87;;
7761;SDS011;3925;48.636;9.516;2023-06-22T03:10:07;13.97;;;11.90;;
7761;SDS011;3925;48.636;9.516;2023-06-22T03:12:35;14.17;;;12.77;;
7761;SDS011;3925;48.636;9.516;2023-06-22T03:15:03;14.27;;;12.83;;
7761;SDS011;3925;48.636;9.516;2023-06-22T03:17:31;15.07;;;11.53;;
7761;SDS011;3925;48.636;9.516;2023-06-22T03:19:57;14.43;;;12.03;;
7761;SDS011;3925;48.636;9.516;2023-06-22T03:22:24;11.63;;;10.43;;
7761;SDS011;3925;48.636;9.516;2023-06-22T03:24:51;12.47;;;10.57;;
7761;SDS011;3925;48.636;9.516;2023-06-22T03:27:18;10.77;;;9.47;;
7761;SDS011;3925;48.636;9.516;2023-06-22T03:29:46;9.57;;;8.50;;
7761;SDS011;3925;48.636;9.516;2023-06-22T03:32:13;10.20;;;8.27;;
7761;SDS011;3925;48.636;9.516;2023-06-22T03:34:40;10.03;;;9.03;;
7761;SDS011;3925;48.636;9.516;2023-06-22T03:37:12;10.27;;;8.97;;
7761;SDS011;3925;48.636;9.516;2023-06-22T03:39:39;9.63;;;8.27;;
7761;SDS011;3925;48.636;9.516;2023-06-22T03:42:06;10.83;;;7.97;;
7761;SDS011;3925;48.636;9.516;2023-06-22T03:44:33;8.83;;;6.60;;
7761;SDS011;3925;48.636;9.516;2023-06-22T03:47:02;8.77;;;7.10;;
7761;SDS011;3925;48.636;9.516;2023-06-22T03:49:32;8.60;;;7.00;;
7761;SDS011;3925;48.636;9.516;2023-06-22T03:51:59;8.47;;;6.83;;
7761;SDS011;3925;48.636;9.516;2023-06-22T03:54:27;9.30;;;6.97;;
7761;SDS011;3925;48.636;9.516;2023-06-22T03:56:54;8.30;;;7.50;;
7761;SDS011;3925;48.636;9.516;2023-06-22T03:59:22;8.07;;;7.37;;
7761;SDS011;3925;48.636;9.516;2023-06-22T04:01:49;9.10;;;8.23;;
7761;SDS011;3925;48.636;9.516;2023-06-22T04:04:17;9.70;;;8.70;;
7761;SDS011;3925;48.636;9.516;2023-06-22T04:06:44;8.60;;;7.80;;
7761;SDS011;3925;48.636;9.516;2023-06-22T04:09:11;8.80;;;7.33;;
7761;SDS011;3925;48.636;9.516;2023-06-22T04:11:38;10.40;;;7.90;;
7761;SDS011;3925;48.636;9.516;2023-06-22T04:14:05;9.80;;;8.10;;
7761;SDS011;3925;48.636;9.516;2023-06-22T04:16:32;9.70;;;8.70;;
7761;SDS011;3925;48.636;9.516;2023-06-22T04:18:59;8.20;;;7.43;;
7761;SDS011;3925;48.636;9.516;2023-06-22T04:21:27;10.80;;;8.70;;
7761;SDS011;3925;48.636;9.516;2023-06-22T04:23:54;11.77;;;9.40;;
7761;SDS011;3925;48.636;9.516;2023-06-22T04:26:21;10.00;;;9.10;;
7761;SDS011;3925;48.636;9.516;2023-06-22T04:28:48;10.20;;;9.20;;
7761;SDS011;3925;48.636;9.516;2023-06-22T04:31:16;9.07;;;7.90;;
7761;SDS011;3925;48.636;9.516;2023-06-22T04:33:43;8.03;;;7.23;;
7761;SDS011;3925;48.636;9.516;2023-06-22T04:36:10;10.20;;;9.10;;
7761;SDS011;3925;48.636;9.516;2023-06-22T04:38:39;9.43;;;8.53;;
7761;SDS011;3925;48.636;9.516;2023-06-22T04:41:07;10.33;;;7.60;;
7761;SDS011;3925;48.636;9.516;2023-06-22T04:43:39;9.43;;;6.97;;
7761;SDS011;3925;48.636;9.516;2023-06-22T04:46:06;7.33;;;6.63;;
7761;SDS011;3925;48.636;9.516;2023-06-22T04:48:32;8.20;;;6.60;;
7761;SDS011;3925;48.636;9.516;2023-06-22T04:50:59;9.97;;;6.20;;
7761;SDS011;3925;48.636;9.516;2023-06-22T04:53:28;9.20;;;7.07;;
7761;SDS011;3925;48.636;9.516;2023-06-22T04:55:57;8.23;;;6.50;;
7761;SDS011;3925;48.636;9.516;2023-06-22T04:58:24;6.20;;;5.60;;
7761;SDS011;3925;48.636;9.516;2023-06-22T05:00:52;6.77;;;6.17;;
7761;SDS011;3925;48.636;9.516;2023-06-22T05:03:21;6.70;;;6.20;;
7761;SDS011;3925;48.636;9.516;2023-06-22T05:05:51;9.67;;;6.13;;
7761;SDS011;3925;48.636;9.516;2023-06-22T05:08:18;8.63;;;5.20;;
7761;SDS011;3925;48.636;9.516;2023-06-22T05:10:45;6.37;;;5.47;;
7761;SDS011;3925;48.636;9.516;2023-06-22T05:13:13;6.13;;;5.53;;
7761;SDS011;3925;48.636;9.516;2023-06-22T05:15:40;6.23;;;5.63;;
7761;SDS011;3925;48.636;9.516;2023-06-22T05:18:07;5.73;;;5.23;;
7761;SDS011;3925;48.636;9.516;2023-06-22T05:20:34;6.30;;;5.67;;
7761;SDS011;3925;48.636;9.516;2023-06-22T05:23:01;6.80;;;5.37;;
7761;SDS011;3925;48.636;9.516;2023-06-22T05:25:28;6.23;;;5.60;;
7761;SDS011;3925;48.636;9.516;2023-06-22T05:27:57;6.77;;;5.23;;
7761;SDS011;3925;48.636;9.516;2023-06-22T05:30:25;5.23;;;4.80;;
7761;SDS011;3925;48.636;9.516;2023-06-22T05:32:53;7.63;;;5.77;;
7761;SDS011;3925;48.636;9.516;2023-06-22T05:35:20;6.60;;;5.27;;
7761;SDS011;3925;48.636;9.516;2023-06-22T05:37:47;6.50;;;4.47;;
7761;SDS011;3925;48.636;9.516;2023-06-22T05:40:14;6.47;;;4.07;;
7761;SDS011;3925;48.636;9.516;2023-06-22T05:42:41;6.43;;;4.00;;
7761;SDS011;3925;48.636;9.516;2023-06-22T05:45:08;4.97;;;4.13;;
7761;SDS011;3925;48.636;9.516;2023-06-22T05:47:37;5.30;;;4.17;;
7761;SDS011;3925;48.636;9.516;2023-06-22T05:50:04;4.80;;;4.33;;
7761;SDS011;3925;48.636;9.516;2023-06-22T05:52:33;6.30;;;3.70;;
7761;SDS011;3925;48.636;9.516;2023-06-22T05:55:01;3.80;;;3.20;;
7761;SDS011;3925;48.636;9.516;2023-06-22T05:57:28;7.77;;;4.40;;
7761;SDS011;3925;48.636;9.516;2023-06-22T05:59:55;4.47;;;4.03;;
7761;SDS011;3925;48.636;9.516;2023-06-22T06:02:22;6.10;;;4.00;;
7761;SDS011;3925;48.636;9.516;2023-06-22T06:04:51;4.70;;;3.20;;
7761;SDS011;3925;48.636;9.516;2023-06-22T06:07:17;4.53;;;3.37;;
7761;SDS011;3925;48.636;9.516;2023-06-22T06:09:44;5.77;;;4.03;;
7761;SDS011;3925;48.636;9.516;2023-06-22T06:12:13;3.63;;;3.33;;
7761;SDS011;3925;48.636;9.516;2023-06-22T06:14:39;4.87;;;3.60;;
7761;SDS011;3925;48.636;9.516;2023-06-22T06:17:06;6.10;;;3.70;;
7761;SDS011;3925;48.636;9.516;2023-06-22T06:19:33;8.13;;;3.90;;
7761;SDS011;3925;48.636;9.516;2023-06-22T06:22:01;5.40;;;3.40;;
7761;SDS011;3925;48.636;9.516;2023-06-22T06:24:29;5.73;;;3.80;;
7761;SDS011;3925;48.636;9.516;2023-06-22T06:26:55;4.00;;;2.67;;
7761;SDS011;3925;48.636;9.516;2023-06-22T06:29:22;7.37;;;3.27;;
7761;SDS011;3925;48.636;9.516;2023-06-22T06:31:49;4.10;;;3.73;;
7761;SDS011;3925;48.636;9.516;2023-06-22T06:34:16;4.20;;;3.70;;
7761;SDS011;3925;48.636;9.516;2023-06-22T06:36:43;3.50;;;3.17;;
7761;SDS011;3925;48.636;9.516;2023-06-22T06:39:12;5.40;;;4.67;;
7761;SDS011;3925;48.636;9.516;2023-06-22T06:41:38;6.70;;;4.10;;
7761;SDS011;3925;48.636;9.516;2023-06-22T06:44:05;4.57;;;4.17;;
7761;SDS011;3925;48.636;9.516;2023-06-22T06:46:32;6.00;;;4.90;;
7761;SDS011;3925;48.636;9.516;2023-06-22T06:48:59;4.50;;;4.10;;
7761;SDS011;3925;48.636;9.516;2023-06-22T06:51:26;4.43;;;3.87;;
7761;SDS011;3925;48.636;9.516;2023-06-22T06:53:53;6.07;;;4.23;;
7761;SDS011;3925;48.636;9.516;2023-06-22T06:56:21;5.50;;;4.30;;
7761;SDS011;3925;48.636;9.516;2023-06-22T06:58:49;9.00;;;4.90;;
7761;SDS011;3925;48.636;9.516;2023-06-22T07:01:16;6.67;;;4.50;;
7761;SDS011;3925;48.636;9.516;2023-06-22T07:03:44;5.23;;;4.17;;
7761;SDS011;3925;48.636;9.516;2023-06-22T07:06:11;7.50;;;5.07;;
7761;SDS011;3925;48.636;9.516;2023-06-22T07:08:39;5.10;;;4.60;;
7761;SDS011;3925;48.636;9.516;2023-06-22T07:11:06;6.73;;;4.43;;
7761;SDS011;3925;48.636;9.516;2023-06-22T07:13:34;7.00;;;4.63;;
7761;SDS011;3925;48.636;9.516;2023-06-22T07:16:01;4.93;;;4.13;;
7761;SDS011;3925;48.636;9.516;2023-06-22T07:18:27;4.60;;;4.00;;
7761;SDS011;3925;48.636;9.516;2023-06-22T07:20:55;8.43;;;4.37;;
7761;SDS011;3925;48.636;9.516;2023-06-22T07:23:22;10.23;;;5.10;;
7761;SDS011;3925;48.636;9.516;2023-06-22T07:25:49;10.17;;;5.20;;
7761;SDS011;3925;48.636;9.516;2023-06-22T07:28:16;8.23;;;5.50;;
7761;SDS011;3925;48.636;9.516;2023-06-22T07:30:44;6.23;;;4.60;;
7761;SDS011;3925;48.636;9.516;2023-06-22T07:33:11;4.90;;;4.40;;
7761;SDS011;3925;48.636;9.516;2023-06-22T07:35:37;7.33;;;4.90;;
7761;SDS011;3925;48.636;9.516;2023-06-22T07:38:04;6.53;;;4.43;;
7761;SDS011;3925;48.636;9.516;2023-06-22T07:40:31;8.17;;;4.90;;
7761;SDS011;3925;48.636;9.516;2023-06-22T07:42:58;5.37;;;4.43;;
7761;SDS011;3925;48.636;9.516;2023-06-22T07:45:25;5.10;;;4.60;;
7761;SDS011;3925;48.636;9.516;2023-06-22T07:47:53;5.40;;;4.90;;
7761;SDS011;3925;48.636;9.516;2023-06-22T07:50:20;7.33;;;5.33;;
7761;SDS011;3925;48.636;9.516;2023-06-22T07:52:47;6.20;;;4.50;;
7761;SDS011;3925;48.636;9.516;2023-06-22T07:55:14;8.10;;;5.40;;
7761;SDS011;3925;48.636;9.516;2023-06-22T07:57:41;5.47;;;4.70;;
7761;SDS011;3925;48.636;9.516;2023-06-22T08:00:08;5.80;;;4.50;;
7761;SDS011;3925;48.636;9.516;2023-06-22T08:02:39;9.40;;;4.73;;
7761;SDS011;3925;48.636;9.516;2023-06-22T08:05:08;5.90;;;4.73;;
7761;SDS011;3925;48.636;9.516;2023-06-22T08:07:36;7.67;;;4.60;;
7761;SDS011;3925;48.636;9.516;2023-06-22T08:10:03;8.50;;;5.00;;
7761;SDS011;3925;48.636;9.516;2023-06-22T08:12:31;9.77;;;5.20;;
7761;SDS011;3925;48.636;9.516;2023-06-22T08:14:58;7.00;;;5.30;;
7761;SDS011;3925;48.636;9.516;2023-06-22T08:17:25;7.30;;;5.17;;
7761;SDS011;3925;48.636;9.516;2023-06-22T08:19:52;6.50;;;4.50;;
7761;SDS011;3925;48.636;9.516;2023-06-22T08:22:20;11.00;;;5.17;;
7761;SDS011;3925;48.636;9.516;2023-06-22T08:24:47;9.50;;;4.73;;
7761;SDS011;3925;48.636;9.516;2023-06-22T08:27:14;8.33;;;5.70;;
7761;SDS011;3925;48.636;9.516;2023-06-22T08:29:42;5.70;;;4.80;;
7761;SDS011;3925;48.636;9.516;2023-06-22T08:32:10;8.43;;;5.17;;
7761;SDS011;3925;48.636;9.516;2023-06-22T08:34:37;5.20;;;4.60;;
7761;SDS011;3925;48.636;9.516;2023-06-22T08:37:07;7.20;;;4.90;;
7761;SDS011;3925;48.636;9.516;2023-06-22T08:39:35;7.50;;;5.73;;
7761;SDS011;3925;48.636;9.516;2023-06-22T08:42:02;7.00;;;5.50;;
7761;SDS011;3925;48.636;9.516;2023-06-22T08:44:29;6.63;;;4.27;;
7761;SDS011;3925;48.636;9.516;2023-06-22T08:46:56;5.93;;;4.67;;
7761;SDS011;3925;48.636;9.516;2023-06-22T08:49:23;8.50;;;5.13;;
7761;SDS011;3925;48.636;9.516;2023-06-22T08:51:50;6.60;;;5.23;;
7761;SDS011;3925;48.636;9.516;2023-06-22T08:54:19;6.20;;;4.70;;
7761;SDS011;3925;48.636;9.516;2023-06-22T08:56:47;5.73;;;4.73;;
7761;SDS011;3925;48.636;9.516;2023-06-22T08:59:14;6.50;;;4.70;;
7761;SDS011;3925;48.636;9.516;2023-06-22T09:01:40;8.20;;;4.50;;
7761;SDS011;3925;48.636;9.516;2023-06-22T09:04:13;9.40;;;5.40;;
7761;SDS011;3925;48.636;9.516;2023-06-22T09:06:40;9.23;;;4.97;;
7761;SDS011;3925;48.636;9.516;2023-06-22T09:09:10;9.60;;;5.30;;
7761;SDS011;3925;48.636;9.516;2023-06-22T09:11:37;12.07;;;5.40;;
7761;SDS011;3925;48.636;9.516;2023-06-22T09:14:05;4.97;;;4.50;;
7761;SDS011;3925;48.636;9.516;2023-06-22T09:16:32;8.20;;;5.00;;
7761;SDS011;3925;48.636;9.516;2023-06-22T09:19:00;7.37;;;4.50;;
7761;SDS011;3925;48.636;9.516;2023-06-22T09:21:27;9.70;;;5.70;;
7761;SDS011;3925;48.636;9.516;2023-06-22T09:23:54;8.13;;;5.73;;
7761;SDS011;3925;48.636;9.516;2023-06-22T09:26:21;7.80;;;5.33;;
7761;SDS011;3925;48.636;9.516;2023-06-22T09:28:48;11.10;;;6.00;;
7761;SDS011;3925;48.636;9.516;2023-06-22T09:31:17;7.03;;;5.17;;
7761;SDS011;3925;48.636;9.516;2023-06-22T09:33:50;6.60;;;5.50;;
7761;SDS011;3925;48.636;9.516;2023-06-22T09:36:17;7.40;;;6.17;;
7761;SDS011;3925;48.636;9.516;2023-06-22T09:38:44;6.53;;;5.20;;
7761;SDS011;3925;48.636;9.516;2023-06-22T09:41:11;8.00;;;6.13;;
7761;SDS011;3925;48.636;9.516;2023-06-22T09:43:38;7.13;;;5.07;;
7761;SDS011;3925;48.636;9.516;2023-06-22T09:46:04;6.97;;;5.50;;
7761;SDS011;3925;48.636;9.516;2023-06-22T09:48:33;7.00;;;5.50;;
7761;SDS011;3925;48.636;9.516;2023-06-22T09:51:00;9.00;;;5.90;;
7761;SDS011;3925;48.636;9.516;2023-06-22T09:53:27;8.83;;;5.77;;
7761;SDS011;3925;48.636;9.516;2023-06-22T09:55:54;5.90;;;5.40;;
7761;SDS011;3925;48.636;9.516;2023-06-22T09:58:20;7.97;;;6.27;;
7761;SDS011;3925;48.636;9.516;2023-06-22T10:00:47;6.43;;;5.83;;
7761;SDS011;3925;48.636;9.516;2023-06-22T10:03:14;8.70;;;6.10;;
7761;SDS011;3925;48.636;9.516;2023-06-22T10:05:42;7.17;;;6.20;;
7761;SDS011;3925;48.636;9.516;2023-06-22T10:08:09;6.00;;;5.40;;
7761;SDS011;3925;48.636;9.516;2023-06-22T10:10:36;9.30;;;6.70;;
7761;SDS011;3925;48.636;9.516;2023-06-22T10:13:07;8.33;;;5.70;;
7761;SDS011;3925;48.636;9.516;2023-06-22T10:15:35;10.07;;;5.57;;
7761;SDS011;3925;48.636;9.516;2023-06-22T10:18:02;9.80;;;5.90;;
7761;SDS011;3925;48.636;9.516;2023-06-22T10:20:29;7.77;;;6.30;;
7761;SDS011;3925;48.636;9.516;2023-06-22T10:22:57;9.80;;;6.83;;
7761;SDS011;3925;48.636;9.516;2023-06-22T10:25:24;7.97;;;6.20;;
7761;SDS011;3925;48.636;9.516;2023-06-22T10:27:51;8.83;;;6.50;;
7761;SDS011;3925;48.636;9.516;2023-06-22T10:30:18;8.97;;;6.40;;
7761;SDS011;3925;48.636;9.516;2023-06-22T10:32:44;9.53;;;6.30;;
7761;SDS011;3925;48.636;9.516;2023-06-22T10:35:12;7.03;;;6.33;;
7761;SDS011;3925;48.636;9.516;2023-06-22T10:37:41;10.87;;;6.00;;
7761;SDS011;3925;48.636;9.516;2023-06-22T10:40:11;8.23;;;6.47;;
7761;SDS011;3925;48.636;9.516;2023-06-22T10:42:38;9.90;;;6.43;;
7761;SDS011;3925;48.636;9.516;2023-06-22T10:45:06;11.17;;;7.47;;
7761;SDS011;3925;48.636;9.516;2023-06-22T10:47:33;11.37;;;7.40;;
7761;SDS011;3925;48.636;9.516;2023-06-22T10:50:00;8.43;;;6.63;;
7761;SDS011;3925;48.636;9.516;2023-06-22T10:52:27;12.00;;;7.07;;
7761;SDS011;3925;48.636;9.516;2023-06-22T10:54:54;7.10;;;5.77;;
7761;SDS011;3925;48.636;9.516;2023-06-22T10:57:22;7.43;;;6.70;;
7761;SDS011;3925;48.636;9.516;2023-06-22T10:59:49;9.00;;;6.73;;
7761;SDS011;3925;48.636;9.516;2023-06-22T11:02:16;8.40;;;7.10;;
7761;SDS011;3925;48.636;9.516;2023-06-22T11:04:46;7.07;;;6.20;;
7761;SDS011;3925;48.636;9.516;2023-06-22T11:07:13;8.83;;;6.40;;
7761;SDS011;3925;48.636;9.516;2023-06-22T11:09:42;7.63;;;6.50;;
7761;SDS011;3925;48.636;9.516;2023-06-22T11:12:09;7.80;;;5.80;;
7761;SDS011;3925;48.636;9.516;2023-06-22T11:14:37;6.33;;;5.70;;
7761;SDS011;3925;48.636;9.516;2023-06-22T11:17:05;13.03;;;6.30;;
7761;SDS011;3925;48.636;9.516;2023-06-22T11:19:45;11.33;;;6.67;;
7761;SDS011;3925;48.636;9.516;2023-06-22T11:22:12;7.27;;;6.57;;
7761;SDS011;3925;48.636;9.516;2023-06-22T11:24:39;10.63;;;6.90;;
7761;SDS011;3925;48.636;9.516;2023-06-22T11:27:06;8.73;;;7.50;;
7761;SDS011;3925;48.636;9.516;2023-06-22T11:29:33;9.10;;;6.07;;
7761;SDS011;3925;48.636;9.516;2023-06-22T11:32:00;10.33;;;7.00;;
7761;SDS011;3925;48.636;9.516;2023-06-22T11:34:27;11.57;;;6.87;;
7761;SDS011;3925;48.636;9.516;2023-06-22T11:36:56;11.30;;;6.90;;
7761;SDS011;3925;48.636;9.516;2023-06-22T11:39:22;9.30;;;7.20;;
7761;SDS011;3925;48.636;9.516;2023-06-22T11:41:49;8.60;;;6.20;;
7761;SDS011;3925;48.636;9.516;2023-06-22T11:44:16;9.73;;;7.50;;
7761;SDS011;3925;48.636;9.516;2023-06-22T11:46:43;12.77;;;6.80;;
7761;SDS011;3925;48.636;9.516;2023-06-22T11:49:10;9.10;;;6.83;;
7761;SDS011;3925;48.636;9.516;2023-06-22T11:51:37;10.60;;;7.50;;
7761;SDS011;3925;48.636;9.516;2023-06-22T11:54:05;12.60;;;7.00;;
7761;SDS011;3925;48.636;9.516;2023-06-22T11:56:32;12.37;;;6.67;;
7761;SDS011;3925;48.636;9.516;2023-06-22T11:58:59;8.30;;;6.37;;
7761;SDS011;3925;48.636;9.516;2023-06-22T12:01:26;8.63;;;6.40;;
7761;SDS011;3925;48.636;9.516;2023-06-22T12:03:53;7.87;;;5.63;;
7761;SDS011;3925;48.636;9.516;2023-06-22T12:06:19;9.20;;;7.07;;
7761;SDS011;3925;48.636;9.516;2023-06-22T12:08:46;10.00;;;5.83;;
7761;SDS011;3925;48.636;9.516;2023-06-22T12:11:14;7.47;;;6.33;;
7761;SDS011;3925;48.636;9.516;2023-06-22T12:13:41;11.03;;;6.50;;
7761;SDS011;3925;48.636;9.516;2023-06-22T12:16:08;11.27;;;7.03;;
7761;SDS011;3925;48.636;9.516;2023-06-22T12:18:37;9.40;;;6.87;;
7761;SDS011;3925;48.636;9.516;2023-06-22T12:21:04;8.80;;;6.53;;
7761;SDS011;3925;48.636;9.516;2023-06-22T12:23:30;13.53;;;7.03;;
7761;SDS011;3925;48.636;9.516;2023-06-22T12:25:57;8.70;;;7.00;;
7761;SDS011;3925;48.636;9.516;2023-06-22T12:28:28;10.03;;;6.90;;
7761;SDS011;3925;48.636;9.516;2023-06-22T12:30:55;9.33;;;6.67;;
7761;SDS011;3925;48.636;9.516;2023-06-22T12:33:22;8.53;;;5.97;;
7761;SDS011;3925;48.636;9.516;2023-06-22T12:35:48;9.30;;;6.20;;
7761;SDS011;3925;48.636;9.516;2023-06-22T12:38:15;6.63;;;5.87;;
7761;SDS011;3925;48.636;9.516;2023-06-22T12:40:42;12.43;;;7.90;;
7761;SDS011;3925;48.636;9.516;2023-06-22T12:43:09;9.53;;;7.40;;
7761;SDS011;3925;48.636;9.516;2023-06-22T12:45:37;10.23;;;6.60;;
7761;SDS011;3925;48.636;9.516;2023-06-22T12:48:05;9.67;;;7.40;;
7761;SDS011;3925;48.636;9.516;2023-06-22T12:50:33;9.70;;;7.30;;
7761;SDS011;3925;48.636;9.516;2023-06-22T12:53:00;10.27;;;6.70;;
7761;SDS011;3925;48.636;9.516;2023-06-22T12:55:29;14.03;;;7.37;;
7761;SDS011;3925;48.636;9.516;2023-06-22T12:57:56;9.03;;;5.93;;
7761;SDS011;3925;48.636;9.516;2023-06-22T13:00:23;7.80;;;6.67;;
7761;SDS011;3925;48.636;9.516;2023-06-22T13:02:51;7.53;;;5.97;;
7761;SDS011;3925;48.636;9.516;2023-06-22T13:05:18;12.80;;;7.00;;
7761;SDS011;3925;48.636;9.516;2023-06-22T13:07:45;9.07;;;6.57;;
7761;SDS011;3925;48.636;9.516;2023-06-22T13:10:12;9.80;;;6.03;;
7761;SDS011;3925;48.636;9.516;2023-06-22T13:12:38;10.90;;;7.07;;
7761;SDS011;3925;48.636;9.516;2023-06-22T13:15:06;9.70;;;6.87;;
7761;SDS011;3925;48.636;9.516;2023-06-22T13:17:33;10.83;;;5.97;;
7761;SDS011;3925;48.636;9.516;2023-06-22T13:20:01;10.53;;;6.53;;
7761;SDS011;3925;48.636;9.516;2023-06-22T13:22:30;10.83;;;6.53;;
7761;SDS011;3925;48.636;9.516;2023-06-22T13:24:59;9.97;;;6.83;;
7761;SDS011;3925;48.636;9.516;2023-06-22T13:27:27;8.93;;;6.50;;
7761;SDS011;3925;48.636;9.516;2023-06-22T13:29:54;14.93;;;6.57;;
7761;SDS011;3925;48.636;9.516;2023-06-22T13:32:20;8.83;;;6.63;;
7761;SDS011;3925;48.636;9.516;2023-06-22T13:34:47;9.93;;;6.47;;
7761;SDS011;3925;48.636;9.516;2023-06-22T13:37:16;7.13;;;5.30;;
7761;SDS011;3925;48.636;9.516;2023-06-22T13:39:43;12.87;;;6.50;;
7761;SDS011;3925;48.636;9.516;2023-06-22T13:42:10;10.53;;;6.57;;
7761;SDS011;3925;48.636;9.516;2023-06-22T13:44:37;9.93;;;6.37;;
7761;SDS011;3925;48.636;9.516;2023-06-22T13:47:04;9.60;;;6.70;;
7761;SDS011;3925;48.636;9.516;2023-06-22T13:49:31;11.30;;;6.93;;
7761;SDS011;3925;48.636;9.516;2023-06-22T13:51:58;8.30;;;7.10;;
7761;SDS011;3925;48.636;9.516;2023-06-22T13:54:27;9.70;;;7.00;;
7761;SDS011;3925;48.636;9.516;2023-06-22T13:56:53;7.87;;;5.83;;
7761;SDS011;3925;48.636;9.516;2023-06-22T13:59:20;9.40;;;6.03;;
7761;SDS011;3925;48.636;9.516;2023-06-22T14:01:47;8.97;;;6.20;;
7761;SDS011;3925;48.636;9.516;2023-06-22T14:04:14;15.47;;;6.30;;
7761;SDS011;3925;48.636;9.516;2023-06-22T14:06:41;13.03;;;6.47;;
7761;SDS011;3925;48.636;9.516;2023-06-22T14:09:08;9.13;;;6.30;;
7761;SDS011;3925;48.636;9.516;2023-06-22T14:11:36;10.57;;;6.10;;
7761;SDS011;3925;48.636;9.516;2023-06-22T14:14:03;7.67;;;6.03;;
7761;SDS011;3925;48.636;9.516;2023-06-22T14:16:30;9.17;;;6.03;;
7761;SDS011;3925;48.636;9.516;2023-06-22T14:18:57;6.90;;;5.90;;
7761;SDS011;3925;48.636;9.516;2023-06-22T14:21:24;13.90;;;6.43;;
7761;SDS011;3925;48.636;9.516;2023-06-22T14:23:51;8.60;;;6.40;;
7761;SDS011;3925;48.636;9.516;2023-06-22T14:26:18;9.43;;;6.50;;
7761;SDS011;3925;48.636;9.516;2023-06-22T14:28:47;9.47;;;6.00;;
7761;SDS011;3925;48.636;9.516;2023-06-22T14:31:15;12.80;;;6.10;;
7761;SDS011;3925;48.636;9.516;2023-06-22T14:33:44;13.43;;;6.93;;
7761;SDS011;3925;48.636;9.516;2023-06-22T14:36:13;7.13;;;6.40;;
7761;SDS011;3925;48.636;9.516;2023-06-22T14:38:39;7.47;;;5.60;;
7761;SDS011;3925;48.636;9.516;2023-06-22T14:41:06;6.83;;;6.13;;
7761;SDS011;3925;48.636;9.516;2023-06-22T14:43:33;11.00;;;6.07;;
7761;SDS011;3925;48.636;9.516;2023-06-22T14:46:01;9.60;;;5.00;;
7761;SDS011;3925;48.636;9.516;2023-06-22T14:48:28;10.07;;;6.50;;
7761;SDS011;3925;48.636;9.516;2023-06-22T14:50:55;11.60;;;6.53;;
7761;SDS011;3925;48.636;9.516;2023-06-22T14:53:23;10.50;;;5.73;;
7761;SDS011;3925;48.636;9.516;2023-06-22T14:55:51;9.23;;;5.33;;
7761;SDS011;3925;48.636;9.516;2023-06-22T14:58:18;11.03;;;5.40;;
7761;SDS011;3925;48.636;9.516;2023-06-22T15:00:47;8.17;;;5.47;;
7761;SDS011;3925;48.636;9.516;2023-06-22T15:03:16;11.30;;;6.07;;
7761;SDS011;3925;48.636;9.516;2023-06-22T15:05:46;11.30;;;6.10;;
7761;SDS011;3925;48.636;9.516;2023-06-22T15:08:13;7.97;;;5.20;;
7761;SDS011;3925;48.636;9.516;2023-06-22T15:10:40;8.17;;;5.57;;